Time;durP1;ratioP1;P1;durP2;ratioP2;P2;SDS_P1;SDS_P2;PMS_P1;PMS_P2;Temp;Humidity;BMP_temperature;BMP_pressure;BME280_temperature;BME280_humidity;BME280_pressure;Samples;Min_cycle;Max_cycle;Signal;HPM_P1;HPM_P2
2022/04/09 00:01:22;;;;;;;19.30;4.83;;;15.90;67.70;;;;;;4981667;28;20762;-79
2022/04/09 00:03:51;;;;;;;6.83;3.80;;;15.80;67.60;;;;;;4983042;28;21041;-79
2022/04/09 00:06:19;;;;;;;8.67;3.37;;;15.80;67.70;;;;;;4983981;28;20627;-78
2022/04/09 00:08:48;;;;;;;7.80;4.10;;;15.80;67.70;;;;;;4985568;28;20207;-78
2022/04/09 00:11:16;;;;;;;7.73;3.60;;;15.70;67.70;;;;;;4984993;28;20207;-77
2022/04/09 00:13:44;;;;;;;7.47;4.10;;;15.70;67.90;;;;;;4984113;28;20209;-78
2022/04/09 00:16:13;;;;;;;10.63;4.20;;;15.70;68.00;;;;;;4985561;28;20205;-78
2022/04/09 00:18:43;;;;;;;7.87;4.47;;;15.70;67.90;;;;;;4983987;28;20864;-77
2022/04/09 00:21:12;;;;;;;9.70;3.77;;;15.60;68.00;;;;;;4984984;28;20889;-78
2022/04/09 00:23:40;;;;;;;11.63;4.63;;;15.60;68.10;;;;;;4985875;28;21282;-77
2022/04/09 00:26:08;;;;;;;6.97;3.77;;;15.60;68.20;;;;;;4986025;28;20196;-78
2022/04/09 00:28:37;;;;;;;12.37;4.67;;;15.60;68.00;;;;;;4985521;28;20196;-79
2022/04/09 00:31:05;;;;;;;10.87;4.57;;;15.50;68.00;;;;;;4986067;28;20235;-79
2022/04/09 00:33:34;;;;;;;9.13;4.27;;;15.50;68.00;;;;;;4985491;28;20200;-78
2022/04/09 00:36:05;;;;;;;12.17;5.07;;;15.50;68.00;;;;;;4985655;28;20207;-78
2022/04/09 00:38:33;;;;;;;7.50;4.17;;;15.50;68.00;;;;;;4985414;28;20193;-79
2022/04/09 00:41:01;;;;;;;10.83;4.77;;;15.50;68.20;;;;;;4986973;28;20201;-79
2022/04/09 00:43:30;;;;;;;10.87;4.40;;;15.50;68.30;;;;;;4986342;28;20208;-78
2022/04/09 00:45:58;;;;;;;9.50;4.97;;;15.40;68.30;;;;;;4986023;28;20221;-78
2022/04/09 00:48:27;;;;;;;10.63;4.87;;;15.40;68.80;;;;;;4985072;28;20327;-80
2022/04/09 00:50:55;;;;;;;14.60;4.90;;;15.40;68.90;;;;;;4985050;28;20619;-78
2022/04/09 00:53:27;;;;;;;11.70;4.97;;;15.30;69.00;;;;;;4984243;28;20201;-79
2022/04/09 00:56:15;;;;;;;12.83;5.23;;;15.30;69.00;;;;;;4984378;28;20203;-78
2022/04/09 00:58:54;;;;;;;7.33;4.47;;;15.30;69.00;;;;;;4984401;28;20192;-79
2022/04/09 01:01:24;;;;;;;8.67;5.07;;;15.30;69.10;;;;;;4985439;28;21696;-79
2022/04/09 01:03:53;;;;;;;19.13;4.63;;;15.20;68.90;;;;;;4981928;28;20282;-79
2022/04/09 01:06:22;;;;;;;10.97;4.80;;;15.20;68.90;;;;;;4984195;28;20204;-80
2022/04/09 01:08:52;;;;;;;11.80;5.13;;;15.20;69.00;;;;;;4984713;28;20555;-79
2022/04/09 01:11:20;;;;;;;10.40;4.90;;;15.20;69.00;;;;;;4985501;28;20798;-79
2022/04/09 01:13:48;;;;;;;9.67;4.90;;;15.20;69.10;;;;;;4984910;28;20848;-79
2022/04/09 01:16:17;;;;;;;9.50;4.30;;;15.20;69.10;;;;;;4983193;28;20647;-79
2022/04/09 01:18:45;;;;;;;10.00;3.93;;;15.10;69.10;;;;;;4981684;28;20209;-80
2022/04/09 01:21:14;;;;;;;7.77;4.13;;;15.10;69.10;;;;;;4984040;28;20221;-80
2022/04/09 01:23:43;;;;;;;11.57;4.93;;;15.10;69.10;;;;;;4982963;28;20459;-79
2022/04/09 01:26:12;;;;;;;10.37;4.13;;;15.10;69.90;;;;;;4984041;28;20231;-79
2022/04/09 01:28:40;;;;;;;8.07;4.30;;;15.10;69.70;;;;;;4983495;28;22147;-81
2022/04/09 01:31:08;;;;;;;10.00;4.57;;;15.10;69.60;;;;;;4986100;28;20220;-79
2022/04/09 01:33:37;;;;;;;12.07;5.23;;;15.10;69.60;;;;;;4982563;28;20403;-79
2022/04/09 01:36:06;;;;;;;8.83;4.37;;;15.10;69.70;;;;;;4983270;28;20260;-79
2022/04/09 01:38:34;;;;;;;10.03;3.90;;;15.00;69.70;;;;;;4985593;28;20209;-80
2022/04/09 01:41:05;;;;;;;9.00;4.90;;;15.00;69.70;;;;;;4984420;28;20193;-79
2022/04/09 01:43:34;;;;;;;7.90;4.57;;;15.00;69.90;;;;;;4983991;28;20201;-80
2022/04/09 01:46:02;;;;;;;9.30;4.77;;;15.00;70.00;;;;;;4983204;28;20229;-79
2022/04/09 01:48:31;;;;;;;8.50;4.13;;;14.90;70.20;;;;;;4984337;28;20209;-80
2022/04/09 01:50:59;;;;;;;6.27;3.93;;;14.90;70.30;;;;;;4984578;28;20208;-80
2022/04/09 01:53:28;;;;;;;7.73;4.27;;;14.90;70.30;;;;;;4984823;28;20197;-79
2022/04/09 01:55:56;;;;;;;10.77;4.30;;;14.90;70.50;;;;;;4983026;28;20223;-80
2022/04/09 01:58:26;;;;;;;9.23;4.10;;;14.90;71.10;;;;;;4985654;28;20571;-79
2022/04/09 02:00:58;;;;;;;9.83;4.47;;;14.90;71.10;;;;;;4982382;28;20201;-79
2022/04/09 02:03:27;;;;;;;12.20;4.63;;;14.80;71.10;;;;;;4983591;28;20193;-79
2022/04/09 02:05:56;;;;;;;9.37;4.70;;;14.80;71.20;;;;;;4983225;28;20227;-79
2022/04/09 02:08:25;;;;;;;14.57;4.87;;;14.80;71.30;;;;;;4983793;28;20866;-79
2022/04/09 02:10:54;;;;;;;9.40;4.50;;;14.70;71.10;;;;;;4984660;28;20208;-79
2022/04/09 02:13:22;;;;;;;12.10;4.90;;;14.70;71.10;;;;;;4985157;28;20197;-79
2022/04/09 02:15:52;;;;;;;9.13;4.70;;;14.70;70.90;;;;;;4984316;28;20196;-80
2022/04/09 02:18:20;;;;;;;13.50;4.50;;;14.70;70.80;;;;;;4982930;28;20204;-79
2022/04/09 02:20:50;;;;;;;9.77;4.83;;;14.70;70.60;;;;;;4983066;28;20225;-78
2022/04/09 02:23:18;;;;;;;10.37;4.63;;;14.70;70.50;;;;;;4981454;28;20193;-79
2022/04/09 02:25:47;;;;;;;9.07;4.23;;;14.70;70.50;;;;;;4984019;28;20221;-79
2022/04/09 02:28:15;;;;;;;10.93;4.90;;;14.70;70.50;;;;;;4982712;28;20654;-79
2022/04/09 02:30:45;;;;;;;9.80;4.70;;;14.70;70.50;;;;;;4982756;28;20200;-80
2022/04/09 02:33:15;;;;;;;12.80;4.67;;;14.70;70.50;;;;;;4982349;28;20192;-80
2022/04/09 02:35:43;;;;;;;8.60;4.77;;;14.60;70.30;;;;;;4983382;28;20545;-79
2022/04/09 02:38:12;;;;;;;7.23;4.63;;;14.60;70.50;;;;;;4982431;28;20658;-80
2022/04/09 02:40:40;;;;;;;8.63;4.33;;;14.60;70.30;;;;;;4983835;28;20201;-80
2022/04/09 02:43:10;;;;;;;8.00;5.10;;;14.60;70.50;;;;;;4984356;28;20208;-80
2022/04/09 02:45:38;;;;;;;11.20;4.93;;;14.60;70.40;;;;;;4982878;28;20780;-80
2022/04/09 02:48:06;;;;;;;8.93;4.70;;;14.60;70.50;;;;;;4983607;28;20212;-80
2022/04/09 02:50:36;;;;;;;8.47;4.90;;;14.50;70.80;;;;;;4982197;28;20209;-80
2022/04/09 02:53:05;;;;;;;9.73;5.07;;;14.50;70.80;;;;;;4982491;28;20405;-79
2022/04/09 02:55:33;;;;;;;10.50;4.90;;;14.50;70.70;;;;;;4983138;28;20657;-77
2022/04/09 02:58:02;;;;;;;8.97;5.20;;;14.40;70.60;;;;;;4983311;28;20496;-79
2022/04/09 03:00:30;;;;;;;12.27;4.93;;;14.40;70.60;;;;;;4981986;28;20203;-80
2022/04/09 03:03:00;;;;;;;10.10;5.60;;;14.40;70.60;;;;;;4982252;28;20298;-79
2022/04/09 03:05:28;;;;;;;8.67;5.40;;;14.40;70.50;;;;;;4983223;28;20238;-81
2022/04/09 03:07:58;;;;;;;9.60;5.10;;;14.30;70.40;;;;;;4979826;28;20209;-79
2022/04/09 03:10:26;;;;;;;7.80;4.87;;;14.30;70.50;;;;;;4983327;28;20197;-80
2022/04/09 03:12:55;;;;;;;9.33;4.87;;;14.30;70.50;;;;;;4983496;28;20709;-80
2022/04/09 03:15:24;;;;;;;12.43;5.33;;;14.30;70.50;;;;;;4983985;28;20203;-80
2022/04/09 03:17:52;;;;;;;10.00;5.47;;;14.20;70.70;;;;;;4983056;28;20201;-80
2022/04/09 03:20:21;;;;;;;16.80;6.10;;;14.20;71.00;;;;;;4979669;28;20208;-80
2022/04/09 03:22:50;;;;;;;12.70;5.87;;;14.20;71.10;;;;;;4982927;28;20230;-79
2022/04/09 03:25:20;;;;;;;11.93;5.90;;;14.10;71.00;;;;;;4983130;28;20213;-79
2022/04/09 03:27:48;;;;;;;15.03;5.80;;;14.10;71.00;;;;;;4983870;28;20227;-80
2022/04/09 03:30:16;;;;;;;10.17;5.60;;;14.10;71.00;;;;;;4983525;28;20197;-78
2022/04/09 03:32:45;;;;;;;11.37;5.77;;;14.00;71.00;;;;;;4981897;28;20213;-78
2022/04/09 03:35:14;;;;;;;12.93;5.40;;;14.00;71.00;;;;;;4983749;28;20209;-78
2022/04/09 03:37:42;;;;;;;12.77;5.80;;;14.00;71.10;;;;;;4983067;28;20212;-80
2022/04/09 03:40:12;;;;;;;8.83;5.33;;;14.00;71.30;;;;;;4981664;28;20208;-78
2022/04/09 03:42:44;;;;;;;10.67;5.60;;;13.90;71.30;;;;;;4985550;28;20595;-79
2022/04/09 03:45:12;;;;;;;9.70;4.80;;;13.90;71.30;;;;;;4986716;28;21331;-77
2022/04/09 03:47:41;;;;;;;14.90;5.53;;;13.90;71.40;;;;;;4986173;28;20220;-79
2022/04/09 03:50:10;;;;;;;13.63;5.97;;;13.90;71.50;;;;;;4987383;28;20197;-79
2022/04/09 03:52:38;;;;;;;10.27;5.53;;;13.80;71.60;;;;;;4987655;28;20208;-79
2022/04/09 03:55:08;;;;;;;14.27;5.63;;;13.80;71.60;;;;;;4987720;28;20208;-80
2022/04/09 03:57:37;;;;;;;8.97;5.53;;;13.80;71.80;;;;;;4985222;28;20714;-80
2022/04/09 04:00:08;;;;;;;10.30;6.27;;;13.80;71.90;;;;;;4985561;28;20203;-79
2022/04/09 04:02:37;;;;;;;11.07;6.13;;;13.80;72.00;;;;;;4984094;28;20197;-80
2022/04/09 04:05:06;;;;;;;15.97;6.40;;;13.80;72.10;;;;;;4986481;28;20686;-77
2022/04/09 04:07:35;;;;;;;9.60;6.47;;;13.80;72.80;;;;;;4985347;28;20444;-79
2022/04/09 04:10:04;;;;;;;11.53;6.63;;;13.80;73.20;;;;;;4986938;28;20208;-79
2022/04/09 04:12:33;;;;;;;14.07;6.27;;;13.80;73.20;;;;;;4985591;28;20197;-77
2022/04/09 04:15:01;;;;;;;10.73;6.27;;;13.80;73.30;;;;;;4987496;28;20235;-79
2022/04/09 04:17:40;;;;;;;10.17;6.20;;;13.70;73.70;;;;;;4988128;28;20202;-78
2022/04/09 04:20:10;;;;;;;11.37;5.57;;;13.70;73.60;;;;;;4986729;28;20874;-78
2022/04/09 04:22:38;;;;;;;11.47;7.00;;;13.70;73.50;;;;;;4984804;28;20239;-78
2022/04/09 04:25:09;;;;;;;11.33;6.03;;;13.70;73.50;;;;;;4985340;28;20197;-79
2022/04/09 04:27:43;;;;;;;14.97;6.37;;;13.70;73.50;;;;;;4986402;28;20208;-79
2022/04/09 04:30:11;;;;;;;14.27;6.10;;;13.80;73.30;;;;;;4987452;28;20244;-78
2022/04/09 04:32:43;;;;;;;12.40;6.30;;;13.80;73.30;;;;;;4985568;28;20197;-79
2022/04/09 04:35:12;;;;;;;16.33;6.83;;;13.80;73.30;;;;;;4986203;28;20193;-78
2022/04/09 04:37:42;;;;;;;13.87;6.67;;;13.80;73.30;;;;;;4985393;28;20744;-79
2022/04/09 04:40:11;;;;;;;13.13;5.93;;;13.80;73.40;;;;;;4986353;28;20216;-78
2022/04/09 04:42:42;;;;;;;10.03;5.80;;;13.90;73.60;;;;;;4985017;28;20209;-79
2022/04/09 04:45:11;;;;;;;13.47;6.37;;;13.90;73.50;;;;;;4986536;28;20197;-78
2022/04/09 04:47:45;;;;;;;14.53;6.03;;;13.90;73.70;;;;;;4985607;28;20236;-78
2022/04/09 04:50:14;;;;;;;17.17;6.57;;;14.00;73.80;;;;;;4987147;28;20643;-79
2022/04/09 04:52:43;;;;;;;13.93;6.03;;;14.00;73.70;;;;;;4986195;28;20216;-79
2022/04/09 04:55:12;;;;;;;17.37;6.33;;;14.00;73.60;;;;;;4984934;28;20193;-78
2022/04/09 04:57:42;;;;;;;14.50;6.17;;;14.10;73.60;;;;;;4985506;28;20199;-78
2022/04/09 05:00:11;;;;;;;11.97;5.60;;;14.20;73.70;;;;;;4986521;28;20209;-78
2022/04/09 05:02:39;;;;;;;12.37;6.03;;;14.20;73.80;;;;;;4985330;28;20200;-79
2022/04/09 05:05:09;;;;;;;7.97;5.30;;;14.30;73.80;;;;;;4985306;28;20756;-78
2022/04/09 05:07:45;;;;;;;10.50;5.60;;;14.40;73.80;;;;;;4984806;28;20212;-79
2022/04/09 05:10:15;;;;;;;12.63;6.30;;;14.40;74.00;;;;;;4985525;28;20199;-79
2022/04/09 05:12:44;;;;;;;12.60;5.87;;;14.50;73.70;;;;;;4985354;28;20751;-80
2022/04/09 05:15:14;;;;;;;13.43;6.13;;;14.60;73.80;;;;;;4985856;28;20266;-79
2022/04/09 05:17:43;;;;;;;8.47;5.57;;;14.60;73.90;;;;;;4985043;28;20208;-79
2022/04/09 05:22:43;;;;;;;15.03;6.77;;;14.80;73.70;;;;;;5002765;28;20227;-80
2022/04/09 05:25:19;;;;;;;13.63;6.80;;;14.90;73.70;;;;;;5005206;28;20188;-78
2022/04/09 05:27:49;;;;;;;19.93;6.40;;;14.90;73.80;;;;;;5005627;28;20212;-79
2022/04/09 05:30:18;;;;;;;16.93;5.73;;;15.00;74.00;;;;;;5005597;28;20200;-81
2022/04/09 05:32:47;;;;;;;17.27;6.10;;;15.00;73.70;;;;;;5003640;28;20270;-81
2022/04/09 05:35:17;;;;;;;11.77;5.57;;;15.00;73.50;;;;;;5004610;28;20197;-79
2022/04/09 05:37:48;;;;;;;11.67;5.43;;;15.10;73.40;;;;;;5004337;28;20677;-79
2022/04/09 05:40:17;;;;;;;11.57;6.40;;;15.20;73.10;;;;;;5005020;28;20859;-79
2022/04/09 05:42:45;;;;;;;11.80;5.57;;;15.30;73.00;;;;;;5004275;28;20211;-80
2022/04/09 05:45:14;;;;;;;14.40;6.23;;;15.40;73.10;;;;;;5005239;28;20207;-80
2022/04/09 05:47:44;;;;;;;10.17;5.80;;;15.50;73.10;;;;;;5005581;28;20220;-80
2022/04/09 05:50:17;;;;;;;10.90;5.50;;;15.50;72.90;;;;;;5004387;28;20750;-80
2022/04/09 05:52:45;;;;;;;15.50;5.73;;;15.60;72.70;;;;;;5003401;28;20246;-80
2022/04/09 05:55:15;;;;;;;10.70;5.40;;;15.70;72.30;;;;;;5004158;28;20746;-81
2022/04/09 05:57:48;;;;;;;9.87;5.17;;;15.70;72.10;;;;;;5005596;28;20291;-80
2022/04/09 06:00:19;;;;;;;11.30;5.60;;;15.80;72.00;;;;;;5004315;28;20661;-79
2022/04/09 06:02:47;;;;;;;11.00;5.28;;;15.90;71.70;;;;;;5004985;28;20446;-79
2022/04/09 06:05:17;;;;;;;12.07;5.07;;;16.00;71.30;;;;;;5003045;28;20203;-80
2022/04/09 06:07:45;;;;;;;11.07;5.27;;;16.10;71.10;;;;;;5004399;28;20260;-80
2022/04/09 06:10:14;;;;;;;13.87;5.20;;;16.20;71.00;;;;;;5006214;28;20204;-80
2022/04/09 06:12:42;;;;;;;12.33;5.73;;;16.30;70.80;;;;;;5004864;28;20196;-81
2022/04/09 06:15:11;;;;;;;9.87;4.40;;;16.40;70.50;;;;;;5004722;28;20200;-81
2022/04/09 06:17:40;;;;;;;8.50;4.07;;;16.50;70.20;;;;;;5003956;28;20200;-79
2022/04/09 06:20:09;;;;;;;9.77;4.07;;;16.60;69.90;;;;;;5004353;28;20289;-80
2022/04/09 06:22:40;;;;;;;5.83;3.40;;;16.70;69.80;;;;;;5003757;28;20260;-81
2022/04/09 06:25:11;;;;;;;8.60;3.77;;;16.80;69.60;;;;;;5004065;28;20791;-78
2022/04/09 06:27:42;;;;;;;9.30;3.40;;;17.00;69.30;;;;;;5004397;28;20296;-80
2022/04/09 06:30:13;;;;;;;9.27;3.33;;;17.10;69.10;;;;;;5003397;28;20306;-79
2022/04/09 06:32:42;;;;;;;11.70;2.67;;;17.20;68.80;;;;;;5003862;28;20319;-79
2022/04/09 06:35:10;;;;;;;12.77;3.07;;;17.30;67.70;;;;;;5003839;28;20203;-79
2022/04/09 06:37:40;;;;;;;8.67;2.93;;;17.40;67.00;;;;;;5003415;28;20203;-79
2022/04/09 06:40:10;;;;;;;10.83;3.73;;;17.50;66.50;;;;;;5004370;28;20204;-80
2022/04/09 06:42:39;;;;;;;7.83;3.73;;;17.60;66.40;;;;;;5002352;28;20211;-80
2022/04/09 06:45:09;;;;;;;11.33;2.87;;;17.70;66.40;;;;;;5004325;28;20211;-80
2022/04/09 06:47:39;;;;;;;8.87;3.03;;;17.80;66.00;;;;;;5003056;28;20204;-79
2022/04/09 06:50:12;;;;;;;8.80;2.77;;;17.90;65.50;;;;;;5003078;28;20724;-81
2022/04/09 06:52:45;;;;;;;6.33;2.40;;;18.00;64.10;;;;;;5003365;28;20613;-80
2022/04/09 06:55:13;;;;;;;7.00;2.60;;;18.10;64.10;;;;;;5003861;28;20226;-77
2022/04/09 06:57:43;;;;;;;5.43;2.17;;;18.30;64.00;;;;;;5002232;28;21032;-83
2022/04/09 07:00:15;;;;;;;5.77;2.00;;;18.40;62.80;;;;;;5004390;28;20409;-80
2022/04/09 07:02:44;;;;;;;6.03;2.17;;;18.50;62.30;;;;;;5002348;28;20207;-80
2022/04/09 07:05:12;;;;;;;7.20;2.40;;;18.60;62.70;;;;;;5003785;28;20242;-82
2022/04/09 07:07:48;;;;;;;8.83;2.70;;;18.70;62.50;;;;;;5004857;28;20857;-80
2022/04/09 07:10:18;;;;;;;7.17;2.40;;;18.80;62.20;;;;;;5003545;28;20187;-81
2022/04/09 07:12:46;;;;;;;10.07;2.88;;;18.90;61.90;;;;;;5002238;28;20443;-82
2022/04/09 07:15:15;;;;;;;10.83;2.03;;;19.00;61.10;;;;;;5003011;28;20224;-79
2022/04/09 07:17:43;;;;;;;10.70;2.63;;;19.00;60.70;;;;;;5003721;28;20212;-83
2022/04/09 07:20:15;;;;;;;6.60;2.20;;;19.10;60.40;;;;;;5003454;28;20287;-81
2022/04/09 07:22:45;;;;;;;8.50;2.63;;;19.20;60.80;;;;;;5003289;28;20228;-83
2022/04/09 07:25:14;;;;;;;8.37;2.40;;;19.30;60.80;;;;;;5003088;28;20885;-81
2022/04/09 07:27:44;;;;;;;7.47;1.90;;;19.40;60.20;;;;;;5002492;28;20192;-80
2022/04/09 07:30:14;;;;;;;5.60;2.10;;;19.40;59.70;;;;;;5001588;28;20208;-79
2022/04/09 07:32:43;;;;;;;4.90;2.17;;;19.50;59.40;;;;;;5002290;28;20831;-80
2022/04/09 07:35:12;;;;;;;4.17;2.00;;;19.60;59.50;;;;;;5001688;28;20196;-78
2022/04/09 07:37:41;;;;;;;4.63;1.90;;;19.60;59.40;;;;;;5002177;28;20410;-79
2022/04/09 07:40:13;;;;;;;4.53;1.83;;;19.70;58.80;;;;;;5001150;28;20231;-78
2022/04/09 07:42:43;;;;;;;13.30;2.57;;;19.80;58.90;;;;;;5002442;28;20208;-83
2022/04/09 07:45:13;;;;;;;9.43;2.10;;;19.80;59.00;;;;;;5002729;28;20205;-80
2022/04/09 07:47:45;;;;;;;4.73;2.20;;;20.00;59.20;;;;;;5001483;28;20196;-79
2022/04/09 07:50:14;;;;;;;7.53;2.10;;;20.10;58.60;;;;;;5001676;28;20199;-79
2022/04/09 07:52:44;;;;;;;8.30;2.27;;;20.20;58.90;;;;;;5001370;28;20200;-77
2022/04/09 07:55:17;;;;;;;6.77;1.90;;;20.30;58.20;;;;;;5002060;28;20364;-80
2022/04/09 07:57:46;;;;;;;5.40;2.20;;;20.40;58.30;;;;;;5001354;28;20446;-80
2022/04/09 08:00:16;;;;;;;9.07;2.23;;;20.50;58.20;;;;;;5002224;28;20191;-79
2022/04/09 08:02:45;;;;;;;7.57;1.97;;;20.50;57.30;;;;;;5001447;28;20781;-79
2022/04/09 08:05:13;;;;;;;6.47;1.90;;;20.70;57.50;;;;;;5002279;28;20204;-80
2022/04/09 08:07:42;;;;;;;5.77;1.90;;;20.70;56.80;;;;;;5000492;28;20196;-79
2022/04/09 08:10:12;;;;;;;5.87;1.93;;;20.80;56.70;;;;;;5000598;28;20193;-76
2022/04/09 08:12:42;;;;;;;6.23;1.40;;;20.90;56.50;;;;;;5002071;28;20592;-81
2022/04/09 08:15:12;;;;;;;6.00;1.88;;;21.00;56.50;;;;;;5003707;28;20227;-78
2022/04/09 08:17:47;;;;;;;10.93;2.42;;;21.00;56.00;;;;;;5002013;28;20219;-79
2022/04/09 08:20:19;;;;;;;6.78;1.85;;;21.10;55.90;;;;;;5003448;28;20196;-77
2022/04/09 08:22:48;;;;;;;4.20;1.60;;;21.20;55.90;;;;;;5000908;28;20216;-77
2022/04/09 08:25:16;;;;;;;5.55;1.42;;;21.20;55.50;;;;;;5001660;28;20197;-76
2022/04/09 08:27:49;;;;;;;5.57;1.65;;;21.30;54.70;;;;;;5001285;28;20204;-79
2022/04/09 08:30:18;;;;;;;6.95;1.70;;;21.40;54.40;;;;;;5004894;28;20209;-81
2022/04/09 08:32:46;;;;;;;5.13;1.50;;;21.40;54.30;;;;;;5005468;28;20262;-77
2022/04/09 08:35:15;;;;;;;5.05;1.83;;;21.50;54.60;;;;;;5005330;28;20706;-80
2022/04/09 08:37:43;;;;;;;7.10;1.88;;;21.50;54.00;;;;;;5004438;28;20898;-78
2022/04/09 08:40:15;;;;;;;9.20;1.95;;;21.60;54.10;;;;;;5005162;28;20283;-80
2022/04/09 08:42:44;;;;;;;4.03;1.50;;;21.70;54.20;;;;;;5005449;28;20199;-78
2022/04/09 08:45:15;;;;;;;4.95;1.70;;;21.70;54.10;;;;;;5005514;28;20801;-81
2022/04/09 08:47:44;;;;;;;4.88;1.30;;;21.80;52.90;;;;;;5005012;28;20215;-79
2022/04/09 08:50:15;;;;;;;2.97;1.20;;;21.80;53.00;;;;;;5004874;28;20218;-79
2022/04/09 08:52:45;;;;;;;4.28;1.48;;;21.90;53.00;;;;;;5004183;28;20195;-79
2022/04/09 08:55:13;;;;;;;14.38;1.65;;;21.90;52.70;;;;;;5004537;28;20200;-77
2022/04/09 08:57:43;;;;;;;5.90;1.65;;;22.00;53.00;;;;;;5003958;28;20204;-78
2022/04/09 09:00:17;;;;;;;4.28;1.58;;;22.10;53.50;;;;;;5004033;28;20199;-78
2022/04/09 09:02:57;;;;;;;4.55;1.60;;;22.20;53.30;;;;;;5003062;28;20196;-77
2022/04/09 09:05:31;;;;;;;3.67;1.38;;;22.20;52.70;;;;;;5006641;28;20602;-77
2022/04/09 09:08:01;;;;;;;6.13;1.98;;;22.30;52.90;;;;;;5002968;28;20573;-79
2022/04/09 09:10:30;;;;;;;6.47;1.50;;;22.30;53.10;;;;;;5004610;28;20205;-80
2022/04/09 09:13:05;;;;;;;3.20;1.33;;;22.40;53.40;;;;;;5004144;28;20200;-80
2022/04/09 09:15:51;;;;;;;7.53;2.28;;;22.50;53.10;;;;;;5004787;28;20596;-81
2022/04/09 09:18:22;;;;;;;3.58;1.45;;;22.60;53.30;;;;;;5005662;28;20787;-80
2022/04/09 09:20:52;;;;;;;3.25;1.45;;;22.70;53.00;;;;;;5004185;28;20207;-78
2022/04/09 09:23:21;;;;;;;6.25;1.67;;;22.70;53.20;;;;;;5003645;28;20867;-78
2022/04/09 09:25:51;;;;;;;5.82;1.60;;;22.80;53.00;;;;;;5003652;28;20453;-79
2022/04/09 09:28:26;;;;;;;6.07;1.45;;;22.90;51.50;;;;;;5004426;28;20200;-77
2022/04/09 09:31:00;;;;;;;5.10;1.35;;;22.90;51.50;;;;;;5005902;28;20662;-78
2022/04/09 09:33:32;;;;;;;3.17;1.38;;;23.00;51.30;;;;;;5005153;28;20192;-79
2022/04/09 09:36:32;;;;;;;7.63;1.50;;;23.10;51.80;;;;;;5003206;28;20203;-77
2022/04/09 09:39:03;;;;;;;6.70;1.15;;;23.20;50.80;;;;;;5004917;28;20733;-81
2022/04/09 09:41:32;;;;;;;3.25;1.20;;;23.30;50.80;;;;;;5003134;28;20207;-77
2022/04/09 09:44:05;;;;;;;2.95;1.65;;;23.40;50.70;;;;;;5004668;28;21124;-75
2022/04/09 09:46:35;;;;;;;5.00;1.40;;;23.40;49.70;;;;;;5003362;28;20656;-77
2022/04/09 09:49:04;;;;;;;4.78;1.63;;;23.50;50.00;;;;;;5003323;28;20213;-82
2022/04/09 09:51:36;;;;;;;4.53;1.35;;;23.60;49.70;;;;;;5002440;28;20825;-77
2022/04/09 09:54:06;;;;;;;4.05;1.33;;;23.60;49.20;;;;;;5003037;28;20247;-83
2022/04/09 09:56:37;;;;;;;6.90;1.10;;;23.70;49.30;;;;;;5002746;28;20586;-78
2022/04/09 09:59:07;;;;;;;5.95;1.20;;;23.80;49.80;;;;;;5004397;28;20199;-75
2022/04/09 10:01:39;;;;;;;5.05;1.15;;;23.90;49.40;;;;;;5003789;28;20836;-78
2022/04/09 10:04:12;;;;;;;6.18;1.00;;;23.90;48.60;;;;;;4984663;28;20197;-78
2022/04/09 10:06:42;;;;;;;5.00;1.33;;;24.00;47.80;;;;;;5003714;28;20291;-79
2022/04/09 10:09:13;;;;;;;2.00;1.02;;;24.10;48.10;;;;;;5003579;28;20807;-78
2022/04/09 10:11:47;;;;;;;6.55;1.10;;;24.10;47.90;;;;;;5003580;28;20258;-79
2022/04/09 10:14:17;;;;;;;3.33;1.02;;;24.20;48.10;;;;;;5003647;28;20200;-76
2022/04/09 10:16:49;;;;;;;4.25;1.42;;;24.40;47.70;;;;;;5001399;28;20207;-77
2022/04/09 10:19:19;;;;;;;5.63;1.20;;;24.40;47.00;;;;;;5004367;28;20195;-79
2022/04/09 10:21:51;;;;;;;5.72;1.38;;;24.50;47.20;;;;;;5002707;28;20227;-79
2022/04/09 10:24:23;;;;;;;4.97;1.52;;;24.50;46.80;;;;;;5003955;28;20211;-82
2022/04/09 10:26:53;;;;;;;5.47;1.20;;;24.50;46.80;;;;;;5004272;28;20243;-81
2022/04/09 10:29:22;;;;;;;5.80;1.30;;;24.60;47.00;;;;;;5002942;28;21719;-78
2022/04/09 10:31:53;;;;;;;5.85;1.20;;;24.60;46.70;;;;;;5002520;28;20204;-79
2022/04/09 10:34:21;;;;;;;3.78;1.30;;;24.70;46.50;;;;;;5003348;28;20368;-80
2022/04/09 10:37:04;;;;;;;5.13;1.30;;;24.80;47.00;;;;;;5000815;28;20579;-79
2022/04/09 10:39:47;;;;;;;2.30;1.00;;;24.90;46.20;;;;;;5003961;28;20196;-76
2022/04/09 10:42:48;;;;;;;3.75;1.60;;;25.00;46.60;;;;;;5003179;28;20200;-79
2022/04/09 10:45:18;;;;;;;4.53;1.20;;;25.10;46.20;;;;;;5003359;28;20203;-76
2022/04/09 10:48:07;;;;;;;3.28;1.10;;;25.00;45.50;;;;;;5002535;28;20291;-78
2022/04/09 10:50:57;;;;;;;2.28;1.05;;;25.10;45.50;;;;;;5001610;28;20209;-78
2022/04/09 10:53:27;;;;;;;7.95;1.67;;;25.10;45.90;;;;;;5002522;28;20658;-79
2022/04/09 10:56:14;;;;;;;2.25;0.80;;;25.20;46.30;;;;;;5005008;28;20192;-77
2022/04/09 10:59:06;;;;;;;6.03;1.85;;;25.20;44.70;;;;;;5002090;28;20754;-78
2022/04/09 11:01:53;;;;;;;3.05;1.17;;;25.20;44.80;;;;;;5002778;28;20332;-79
2022/04/09 11:04:44;;;;;;;3.95;1.05;;;25.20;45.10;;;;;;5003104;28;20200;-78
2022/04/09 11:07:20;;;;;;;5.47;1.08;;;25.30;45.20;;;;;;5002665;28;20199;-75
2022/04/09 11:09:54;;;;;;;2.10;0.98;;;25.20;44.40;;;;;;5002327;28;20204;-76
2022/04/09 11:12:24;;;;;;;4.40;1.05;;;25.30;44.60;;;;;;5002797;28;20659;-79
2022/04/09 11:14:57;;;;;;;5.57;1.30;;;25.30;45.00;;;;;;5002309;28;20204;-77
2022/04/09 11:17:32;;;;;;;4.68;1.02;;;25.30;44.60;;;;;;5003628;28;20314;-75
2022/04/09 11:20:09;;;;;;;6.10;1.52;;;25.30;45.10;;;;;;5002193;28;20200;-76
2022/04/09 11:22:39;;;;;;;3.08;1.10;;;25.40;44.70;;;;;;5001519;28;20310;-79
2022/04/09 11:25:09;;;;;;;3.78;1.10;;;25.40;44.60;;;;;;5002698;28;20216;-79
2022/04/09 11:27:38;;;;;;;4.18;1.20;;;25.40;44.70;;;;;;5001886;28;21814;-76
2022/04/09 11:30:08;;;;;;;3.20;1.08;;;25.50;45.10;;;;;;5001700;28;20721;-79
2022/04/09 11:32:37;;;;;;;2.70;1.10;;;25.60;45.40;;;;;;5003601;28;20239;-78
2022/04/09 11:35:10;;;;;;;4.20;1.27;;;25.70;45.10;;;;;;5003126;28;20206;-77
2022/04/09 11:37:41;;;;;;;6.88;1.52;;;25.80;44.50;;;;;;5002333;28;20601;-77
2022/04/09 11:40:11;;;;;;;5.97;1.63;;;25.70;43.80;;;;;;5002513;28;20204;-78
2022/04/09 11:42:45;;;;;;;4.88;1.58;;;25.80;44.20;;;;;;5001127;28;20196;-79
2022/04/09 11:45:20;;;;;;;4.28;1.40;;;25.80;43.90;;;;;;5002721;28;20207;-78
2022/04/09 11:47:49;;;;;;;9.38;1.60;;;25.90;44.20;;;;;;5000776;28;20209;-78
2022/04/09 11:50:19;;;;;;;4.43;1.00;;;25.90;44.20;;;;;;5000949;28;20227;-77
2022/04/09 11:52:47;;;;;;;4.13;1.10;;;26.00;43.40;;;;;;5002067;28;20287;-77
2022/04/09 11:55:17;;;;;;;7.03;1.08;;;26.10;43.60;;;;;;5001213;28;20650;-78
2022/04/09 11:57:50;;;;;;;6.47;1.20;;;26.10;43.80;;;;;;5001000;28;20541;-76
2022/04/09 12:00:20;;;;;;;4.95;0.80;;;26.10;43.40;;;;;;5000776;28;20669;-78
2022/04/09 12:02:52;;;;;;;3.42;0.80;;;26.10;43.60;;;;;;5003807;28;20298;-78
2022/04/09 12:05:22;;;;;;;1.42;0.65;;;26.10;43.10;;;;;;5004011;28;20208;-78
2022/04/09 12:07:50;;;;;;;5.22;1.10;;;26.20;43.20;;;;;;5004584;28;20849;-76
2022/04/09 12:10:26;;;;;;;2.88;1.10;;;26.20;42.80;;;;;;5003940;28;20258;-77
2022/04/09 12:12:56;;;;;;;4.78;1.10;;;26.20;42.70;;;;;;5005418;28;20200;-79
2022/04/09 12:15:30;;;;;;;6.15;1.20;;;26.30;43.00;;;;;;5005183;28;20195;-78
2022/04/09 12:17:59;;;;;;;3.42;1.10;;;26.30;43.00;;;;;;5005024;28;20628;-77
2022/04/09 12:20:33;;;;;;;2.65;1.25;;;26.30;42.80;;;;;;5004568;28;20199;-77
2022/04/09 12:23:03;;;;;;;3.75;1.40;;;26.30;43.70;;;;;;4965747;28;20733;-78
2022/04/09 12:25:36;;;;;;;4.60;1.10;;;26.30;42.60;;;;;;4964415;28;20883;-78
2022/04/09 12:28:06;;;;;;;5.55;1.30;;;26.40;42.70;;;;;;4966007;28;20207;-79
2022/04/09 12:30:41;;;;;;;6.25;1.00;;;26.40;42.80;;;;;;4966370;28;20225;-78
2022/04/09 12:33:11;;;;;;;5.53;0.95;;;26.50;43.40;;;;;;4964923;28;20200;-79
2022/04/09 12:35:44;;;;;;;3.63;1.55;;;26.40;42.90;;;;;;4965912;28;20214;-78
2022/04/09 12:38:30;;;;;;;5.82;1.60;;;26.40;42.80;;;;;;4966155;28;21599;-77
2022/04/09 12:41:01;;;;;;;4.43;1.00;;;26.40;42.90;;;;;;4965109;28;20194;-78
2022/04/09 12:43:37;;;;;;;3.90;1.00;;;26.50;43.20;;;;;;4965309;28;20201;-78
2022/04/09 12:46:06;;;;;;;5.80;1.50;;;26.50;42.90;;;;;;4967402;28;20198;-75
2022/04/09 12:48:43;;;;;;;3.85;1.30;;;26.50;42.30;;;;;;4966538;28;20295;-79
2022/04/09 12:51:14;;;;;;;5.60;1.02;;;26.40;42.60;;;;;;4965973;28;20213;-79
2022/04/09 12:53:44;;;;;;;5.50;1.13;;;26.50;42.90;;;;;;4966807;28;20216;-78
2022/04/09 12:56:14;;;;;;;6.72;1.42;;;26.50;43.00;;;;;;4965241;28;20205;-77
2022/04/09 12:58:44;;;;;;;4.35;1.20;;;26.60;43.40;;;;;;4967058;28;20217;-79
2022/04/09 13:01:13;;;;;;;5.20;1.15;;;26.60;43.40;;;;;;4964897;28;20193;-79
2022/04/09 13:03:42;;;;;;;4.20;1.55;;;26.60;43.20;;;;;;4966382;28;20213;-77